Time;durP1;ratioP1;P1;durP2;ratioP2;P2;SDS_P1;SDS_P2;PMS_P1;PMS_P2;Temp;Humidity;BMP_temperature;BMP_pressure;BME280_temperature;BME280_humidity;BME280_pressure;Samples;Min_cycle;Max_cycle;Signal;HPM_P1;HPM_P2
2021/01/17 04:40:21;;;;;;;96.90;38.13;;;-0.30;99.90;;;-143.32;100.00;97540.66;4685267;30;20468;-91
2021/01/17 04:50:42;;;;;;;86.90;34.50;;;-0.30;99.90;;;-143.32;100.00;97573.41;4686164;30;20988;-87
2021/01/17 05:05:43;;;;;;;;;;;;;;;;;;;;;
2021/01/17 05:08:38;;;;;;;93.03;37.80;;;-0.20;99.90;;;-143.32;100.00;97600.00;4686246;30;20447;-88
2021/01/17 05:11:41;;;;;;;92.23;39.27;;;-0.20;99.90;;;-143.32;100.00;97600.00;4685965;30;20479;-87
2021/01/17 05:14:59;;;;;;;94.40;36.30;;;-0.10;99.90;;;-143.32;100.00;97602.03;4686458;30;20552;-90
2021/01/17 05:18:03;;;;;;;91.97;37.80;;;-0.30;99.90;;;-143.32;100.00;97561.13;4686487;30;20472;-89
2021/01/17 05:20:53;;;;;;;89.30;37.10;;;-0.30;99.90;;;-143.32;100.00;97634.78;4686537;30;20488;-90
2021/01/17 05:23:44;;;;;;;89.63;36.07;;;-0.40;99.90;;;-143.32;100.00;97602.03;4685788;30;20472;-88
2021/01/17 05:31:02;;;;;;;98.13;39.10;;;-0.30;99.90;;;-143.32;100.00;97618.41;4667247;30;20477;-91
2021/01/17 05:41:26;;;;;;;107.70;37.87;;;-0.20;99.90;;;-143.32;100.00;97604.09;4567058;31;20458;-92
2021/01/17 05:43:56;;;;;;;96.87;38.80;;;-0.20;99.90;;;-143.32;100.00;97612.28;4567424;31;20459;-90
2021/01/17 05:46:33;;;;;;;100.43;38.17;;;-0.20;99.90;;;-143.32;100.00;97593.84;4637298;30;20514;-91
2021/01/17 05:49:23;;;;;;;96.93;37.97;;;-0.20;99.90;;;-143.32;100.00;97569.31;4676305;30;20468;-91
2021/01/17 05:52:09;;;;;;;94.00;37.87;;;0.00;99.90;;;-143.32;100.00;97610.22;4687124;30;20607;-90
2021/01/17 05:54:43;;;;;;;91.87;35.70;;;-0.10;99.90;;;-143.32;100.00;97583.63;4687804;30;20468;-91
2021/01/17 05:57:26;;;;;;;98.37;39.13;;;-0.20;99.90;;;-143.32;100.00;97616.38;4686050;30;20487;-90
2021/01/17 11:24:42;;;;;;;127.00;40.60;;;1.30;99.90;;;-143.32;100.00;97561.13;5264911;24;20867;-90
2021/01/17 11:27:15;;;;;;;118.40;40.80;;;1.40;99.90;;;-143.32;100.00;97583.63;4683023;30;20558;-88
2021/01/17 11:29:43;;;;;;;105.47;38.87;;;1.50;99.90;;;-143.32;100.00;97557.03;4683694;30;20479;-87
2021/01/17 12:32:31;;;;;;;182.83;49.90;;;1.90;99.90;;;-143.32;100.00;97526.34;5309766;24;20507;-89
2021/01/17 12:47:41;;;;;;;186.47;48.60;;;2.00;99.90;;;-143.32;100.00;97579.53;4684656;30;20928;-94
2021/01/17 13:10:58;;;;;;;186.97;51.50;;;2.20;99.90;;;-143.32;100.00;97559.06;5048094;24;20515;-90
2021/01/17 13:24:02;;;;;;;208.30;51.50;;;2.30;99.90;;;-143.32;100.00;97569.31;4570719;31;20466;-91
2021/01/17 13:26:32;;;;;;;225.53;53.40;;;2.30;99.90;;;-143.32;100.00;97520.22;4622100;30;21093;-90
2021/01/17 13:29:08;;;;;;;209.97;53.70;;;2.20;99.90;;;-143.32;100.00;97514.06;4685517;30;20483;-90
2021/01/17 13:47:30;;;;;;;226.97;54.93;;;2.50;99.90;;;-143.32;100.00;97512.03;4618909;31;20571;-92
2021/01/17 13:50:01;;;;;;;230.83;56.63;;;2.50;99.90;;;-143.32;100.00;97581.59;4617833;31;20479;-93
2021/01/17 14:04:33;;;;;;;;;;;;;;;;;;;;;
2021/01/17 14:25:32;;;;;;;252.77;58.37;;;2.90;99.90;;;-143.32;100.00;97522.25;4609901;31;20434;-93
2021/01/17 14:31:53;;;;;;;247.70;57.77;;;2.90;99.90;;;-143.32;100.00;97487.47;4638869;31;20498;-93
2021/01/17 14:35:02;;;;;;;243.93;59.23;;;3.00;99.90;;;-143.32;100.00;97507.94;4642013;31;20471;-90
2021/01/17 14:41:45;;;;;;;262.27;61.30;;;3.10;99.90;;;-143.32;100.00;97460.88;4704467;30;20498;-91
2021/01/17 14:52:04;;;;;;;286.23;60.80;;;3.20;99.90;;;-143.32;100.00;97528.38;4687293;30;20458;-90
2021/01/17 14:57:32;;;;;;;244.43;60.87;;;3.20;99.90;;;-143.32;100.00;97499.75;4706561;30;20475;-91
2021/01/17 15:00:13;;;;;;;273.37;60.70;;;3.10;99.90;;;-143.32;100.00;97561.13;4709240;30;20455;-92
2021/01/17 15:02:48;;;;;;;285.97;64.10;;;3.10;99.90;;;-143.32;100.00;97518.16;4714223;30;20467;-93
2021/01/17 15:05:19;;;;;;;290.57;59.43;;;3.20;99.90;;;-143.32;100.00;97501.78;4708360;30;20470;-91
2021/01/17 15:08:13;;;;;;;271.73;60.07;;;3.20;99.90;;;-143.32;100.00;97512.03;4707966;30;20459;-94
2021/01/17 15:18:08;;;;;;;273.27;62.10;;;3.20;99.90;;;-143.32;100.00;97552.94;4678868;30;20463;-92
2021/01/17 15:20:40;;;;;;;258.27;57.97;;;3.20;99.90;;;-143.32;100.00;97509.97;4691160;30;20961;-93
2021/01/17 15:23:22;;;;;;;261.33;59.47;;;3.20;99.90;;;-143.32;100.00;97491.56;4690921;30;20488;-93
2021/01/17 15:25:51;;;;;;;278.37;61.10;;;3.20;99.90;;;-143.32;100.00;97495.66;4691261;30;20496;-93
2021/01/17 15:28:21;;;;;;;237.67;57.93;;;3.20;99.90;;;-143.32;100.00;97518.16;4689990;30;20487;-92
2021/01/17 15:30:52;;;;;;;314.90;62.10;;;3.30;99.90;;;-143.32;100.00;97509.97;4689441;30;20495;-92
2021/01/17 15:33:42;;;;;;;234.73;58.67;;;3.30;99.90;;;-143.32;100.00;97512.03;4690056;30;20484;-92
2021/01/17 15:36:12;;;;;;;256.03;56.90;;;3.50;99.90;;;-143.32;100.00;97495.66;4689707;30;20499;-95
2021/01/17 15:38:56;;;;;;;248.07;62.10;;;3.30;99.90;;;-143.32;100.00;97485.44;4690395;30;20467;-92
2021/01/17 15:41:34;;;;;;;228.87;57.60;;;3.30;99.90;;;-143.32;100.00;97497.69;4689432;30;20484;-93
2021/01/17 15:44:04;;;;;;;197.27;56.40;;;3.30;99.90;;;-143.32;100.00;97456.78;4693749;30;20468;-93
2021/01/17 15:46:48;;;;;;;204.17;54.47;;;3.30;99.90;;;-143.32;100.00;97505.88;4698730;30;20496;-91
2021/01/17 15:49:33;;;;;;;206.43;57.67;;;3.30;99.90;;;-143.32;100.00;97483.38;4701462;30;20502;-92
2021/01/17 15:52:12;;;;;;;185.93;55.33;;;3.30;99.90;;;-143.32;100.00;97503.84;4687282;30;20464;-91
2021/01/17 16:06:02;;;;;;;210.53;54.20;;;3.10;99.90;;;-143.32;100.00;97514.06;4650600;31;20418;-90
2021/01/17 16:09:06;;;;;;;195.33;53.17;;;3.10;99.90;;;-143.32;100.00;97530.44;4703042;30;20472;-93
2021/01/17 16:12:08;;;;;;;191.23;49.20;;;3.30;99.90;;;-143.32;100.00;97497.69;4690704;30;20589;-91
2021/01/17 16:19:28;;;;;;;208.07;51.43;;;3.30;99.90;;;-143.32;100.00;97450.66;4702928;30;20543;-92
2021/01/17 16:22:04;;;;;;;207.03;51.43;;;3.50;99.90;;;-143.32;100.00;97509.97;4709046;30;20489;-90
2021/01/17 16:24:36;;;;;;;196.20;50.00;;;3.30;99.90;;;-143.32;100.00;97499.75;4706195;30;20545;-89
2021/01/17 16:35:07;;;;;;;196.87;48.07;;;3.40;99.90;;;-143.32;100.00;97467.00;4718307;30;20427;-91
2021/01/17 16:45:54;;;;;;;152.57;42.63;;;3.30;99.90;;;-143.32;100.00;97524.31;4708370;30;20498;-92
2021/01/17 16:48:25;;;;;;;202.87;46.37;;;3.50;99.90;;;-143.32;100.00;97493.59;4709279;30;20481;-91
2021/01/17 16:57:37;;;;;;;162.30;45.27;;;3.70;99.90;;;-143.32;100.00;97448.59;4711459;30;20426;-90
2021/01/17 17:00:08;;;;;;;160.90;43.90;;;3.70;99.90;;;-143.32;100.00;97467.00;4714548;30;20482;-91
2021/01/17 17:02:38;;;;;;;146.77;40.17;;;3.60;99.90;;;-143.32;100.00;97495.66;4715138;30;20483;-90
2021/01/17 17:05:11;;;;;;;173.77;45.73;;;3.60;99.90;;;-143.32;100.00;97464.97;4709819;30;20931;-91
2021/01/17 17:12:18;;;;;;;149.53;41.30;;;3.60;99.90;;;-143.32;100.00;97424.06;4717673;30;20910;-91
2021/01/17 17:15:57;;;;;;;146.23;40.83;;;3.60;99.90;;;-143.32;100.00;97479.28;4720252;30;20491;-94
2021/01/17 17:18:49;;;;;;;128.03;37.60;;;3.60;99.90;;;-143.32;100.00;97491.56;4719316;30;20494;-90
2021/01/17 17:21:38;;;;;;;121.67;36.80;;;3.60;99.90;;;-143.32;100.00;97485.44;4702440;30;20467;-92
2021/01/17 17:24:27;;;;;;;131.87;40.00;;;3.60;99.90;;;-143.32;100.00;97501.78;4716666;30;20475;-91
2021/01/17 17:40:15;;;;;;;134.30;34.67;;;3.80;99.90;;;-143.32;100.00;97505.88;4926213;24;20515;-89
2021/01/17 17:43:00;;;;;;;116.33;32.33;;;3.70;99.90;;;-143.32;100.00;97522.25;4690628;30;20473;-92
2021/01/17 17:45:27;;;;;;;154.90;33.53;;;3.70;99.90;;;-143.32;100.00;97522.25;4884099;24;21162;-88
2021/01/17 17:48:00;;;;;;;147.93;32.43;;;3.70;99.90;;;-143.32;100.00;97503.84;4684329;30;20888;-91
2021/01/17 17:58:42;;;;;;;92.97;28.90;;;3.80;99.90;;;-143.32;100.00;97483.38;4762528;24;20512;-92
2021/01/17 18:01:10;;;;;;;101.67;26.00;;;3.90;99.90;;;-143.32;100.00;97491.56;4685832;30;20476;-89
2021/01/17 18:03:37;;;;;;;77.40;25.37;;;3.90;99.90;;;-143.32;100.00;97489.53;4685259;30;20494;-92
2021/01/17 18:06:08;;;;;;;98.73;25.10;;;3.90;99.90;;;-143.32;100.00;97512.03;4684405;30;20500;-91
2021/01/17 18:08:37;;;;;;;80.80;23.63;;;4.00;99.90;;;-143.32;100.00;97448.59;4684950;30;20460;-90
2021/01/17 18:11:05;;;;;;;96.00;24.50;;;4.00;99.90;;;-143.32;100.00;97483.38;4685276;30;20516;-90
2021/01/17 18:13:34;;;;;;;81.17;25.07;;;4.10;99.90;;;-143.32;100.00;97473.16;4685012;30;20483;-91
2021/01/17 18:16:01;;;;;;;91.43;26.73;;;4.10;99.90;;;-143.32;100.00;97501.78;4684883;30;20512;-91
2021/01/17 18:18:28;;;;;;;80.23;25.23;;;4.10;99.90;;;-143.32;100.00;97462.91;4685578;30;20480;-90
2021/01/17 18:20:55;;;;;;;96.20;24.97;;;4.10;99.90;;;-143.32;100.00;97460.88;4685253;30;20477;-90
2021/01/17 18:23:22;;;;;;;78.00;25.90;;;4.10;99.90;;;-143.32;100.00;97493.59;4694200;30;20472;-91
2021/01/17 18:25:52;;;;;;;91.37;24.10;;;4.10;99.90;;;-143.32;100.00;97483.38;4688766;30;20507;-89
2021/01/17 18:28:19;;;;;;;68.67;24.50;;;4.10;99.90;;;-143.32;100.00;97477.25;4684894;30;20503;-91
2021/01/17 18:30:46;;;;;;;85.03;25.00;;;4.10;99.90;;;-143.32;100.00;97460.88;4687762;30;20475;-93
2021/01/17 18:36:56;;;;;;;81.20;23.17;;;4.10;99.90;;;-143.32;100.00;97481.34;4688360;30;20932;-93
2021/01/17 18:39:24;;;;;;;77.53;22.93;;;4.10;99.90;;;-143.32;100.00;97497.69;4689955;30;20479;-92
2021/01/17 18:42:00;;;;;;;98.20;23.53;;;4.20;99.90;;;-143.32;100.00;97450.66;4684429;30;20488;-90
2021/01/17 18:51:58;;;;;;;67.97;21.60;;;4.20;99.90;;;-143.32;100.00;97452.69;4693949;30;20423;-93
2021/01/17 18:59:14;;;;;;;57.90;20.50;;;4.20;99.90;;;-143.32;100.00;97432.22;4669915;30;20502;-94
2021/01/17 19:01:46;;;;;;;61.33;18.90;;;4.10;99.90;;;-143.32;100.00;97432.22;4676773;30;20574;-92
2021/01/17 19:12:11;;;;;;;57.80;18.10;;;4.20;99.90;;;-143.32;100.00;97481.34;4649759;30;20455;-91
2021/01/17 19:14:43;;;;;;;45.30;15.40;;;4.20;99.90;;;-143.32;100.00;97450.66;4685639;30;20586;-89
2021/01/17 19:17:13;;;;;;;71.07;18.03;;;4.20;99.90;;;-143.32;100.00;97477.25;4687160;30;20456;-91
2021/01/17 19:22:35;;;;;;;42.80;16.23;;;4.10;99.90;;;-143.32;100.00;97450.66;4679026;30;20560;-89
2021/01/17 19:25:04;;;;;;;59.90;16.80;;;4.20;99.90;;;-143.32;100.00;97489.53;4688554;30;20536;-90
2021/01/17 19:31:15;;;;;;;72.60;18.20;;;4.30;99.90;;;-143.32;100.00;97456.78;4686114;30;20457;-92
2021/01/17 19:38:32;;;;;;;83.73;17.00;;;4.30;99.90;;;-143.32;100.00;97456.78;4687182;30;20968;-91
2021/01/17 20:03:15;;;;;;;59.50;13.00;;;4.40;99.90;;;-143.32;100.00;97483.38;4582725;31;20515;-89
2021/01/17 20:05:44;;;;;;;42.37;13.40;;;4.40;99.90;;;-143.32;100.00;97458.84;4584184;31;20474;-91
2021/01/17 20:12:00;;;;;;;51.87;13.10;;;4.30;99.90;;;-143.32;100.00;97446.56;4644073;30;20935;-92
2021/01/17 20:14:28;;;;;;;44.20;12.40;;;4.30;99.90;;;-143.32;100.00;97434.28;4685463;30;20463;-91
2021/01/17 20:16:54;;;;;;;53.57;11.73;;;4.30;99.90;;;-143.32;100.00;97440.41;4684769;30;20488;-93
2021/01/17 20:31:21;;;;;;;;;;;;;;;;;;;;;
2021/01/17 20:33:50;;;;;;;39.53;13.93;;;4.30;99.90;;;-143.32;100.00;97499.75;4688504;30;20563;-93
2021/01/17 20:36:33;;;;;;;68.10;15.07;;;4.40;99.90;;;-143.32;100.00;97434.28;4688069;30;20471;-91
2021/01/17 20:39:07;;;;;;;62.53;14.20;;;4.30;99.90;;;-143.32;100.00;97475.19;4688060;30;20470;-93
2021/01/17 20:41:42;;;;;;;35.70;13.63;;;4.30;99.90;;;-143.32;100.00;97452.69;4688092;30;20465;-90
2021/01/17 20:44:21;;;;;;;34.27;13.90;;;4.30;99.90;;;-143.32;100.00;97507.94;4687995;30;20522;-92
2021/01/17 20:46:49;;;;;;;52.60;14.60;;;4.30;99.90;;;-143.32;100.00;97487.47;4687437;30;20496;-91
2021/01/17 20:49:18;;;;;;;59.07;14.90;;;4.30;99.90;;;-143.32;100.00;97436.31;4687879;30;20463;-93
2021/01/17 20:52:20;;;;;;;50.20;15.03;;;4.30;99.90;;;-143.32;100.00;97485.44;4687490;30;20495;-92
2021/01/17 21:07:11;;;;;;;46.70;13.63;;;4.20;99.90;;;-143.32;100.00;97475.19;4618538;31;20574;-93
2021/01/17 21:09:59;;;;;;;;;;;;;;;;;;;;;
2021/01/17 21:16:12;;;;;;;56.40;13.30;;;4.10;99.90;;;-143.32;100.00;97448.59;4633957;31;20435;-91
2021/01/17 21:22:24;;;;;;;56.87;12.90;;;4.10;99.90;;;-143.32;100.00;97464.97;4637605;30;20812;-89
2021/01/17 21:24:52;;;;;;;46.97;13.67;;;3.90;99.90;;;-143.32;100.00;97473.16;4685689;30;20471;-91
2021/01/17 21:27:21;;;;;;;46.40;14.60;;;4.00;99.90;;;-143.32;100.00;97489.53;4685768;30;20611;-90
2021/01/17 21:30:17;;;;;;;59.53;14.83;;;4.10;99.90;;;-143.32;100.00;97464.97;4687453;30;20476;-91
2021/01/17 21:32:47;;;;;;;60.40;14.23;;;3.90;99.90;;;-143.32;100.00;97514.06;4688511;30;20465;-92
2021/01/17 21:35:17;;;;;;;62.13;14.70;;;4.00;99.90;;;-143.32;100.00;97497.69;4686980;30;20564;-91
2021/01/17 21:40:36;;;;;;;46.77;13.80;;;3.80;99.90;;;-143.32;100.00;97479.28;4691816;30;20472;-92
2021/01/17 21:43:06;;;;;;;52.47;11.97;;;3.80;99.90;;;-143.32;100.00;97462.91;4686455;30;20468;-89
2021/01/17 21:45:39;;;;;;;41.50;11.90;;;3.90;99.90;;;-143.32;100.00;97497.69;4687859;30;20957;-89
2021/01/17 21:48:09;;;;;;;38.90;12.07;;;3.70;99.90;;;-143.32;100.00;97505.88;4685150;30;20476;-89
2021/01/17 21:58:00;;;;;;;43.17;11.50;;;3.70;99.90;;;-143.32;100.00;97495.66;4648760;30;21008;-89
2021/01/17 22:09:00;;;;;;;43.97;11.33;;;3.80;99.90;;;-143.32;100.00;97499.75;4582054;31;20505;-89
2021/01/17 22:11:26;;;;;;;42.50;12.03;;;3.70;99.90;;;-143.32;100.00;97503.84;4643089;30;20485;-87
2021/01/17 22:14:17;;;;;;;45.97;11.67;;;3.70;99.90;;;-143.32;100.00;97497.69;4667700;30;20501;-90
2021/01/17 22:17:00;;;;;;;51.97;11.20;;;3.70;99.90;;;-143.32;100.00;97516.13;4638512;30;20469;-89
2021/01/17 22:19:29;;;;;;;48.50;12.60;;;3.70;99.90;;;-143.32;100.00;97477.25;4667087;30;20440;-89
2021/01/17 22:21:56;;;;;;;42.33;12.37;;;3.60;99.90;;;-143.32;100.00;97497.69;4667129;30;20878;-88
2021/01/17 22:24:25;;;;;;;40.03;12.93;;;3.60;99.90;;;-143.32;100.00;97505.88;4667198;30;20458;-88
2021/01/17 22:26:53;;;;;;;49.00;14.93;;;3.60;99.90;;;-143.32;100.00;97516.13;4666819;30;20505;-88
2021/01/17 22:29:21;;;;;;;37.57;12.70;;;3.50;99.90;;;-143.32;100.00;97475.19;4666962;30;20473;-88
2021/01/17 22:31:49;;;;;;;50.23;13.63;;;3.50;99.90;;;-143.32;100.00;97524.31;4667271;30;20462;-89
2021/01/17 22:37:58;;;;;;;59.87;14.87;;;3.30;99.90;;;-143.32;100.00;97505.88;4667417;30;20465;-89
2021/01/17 22:40:32;;;;;;;81.50;14.87;;;3.30;99.90;;;-143.32;100.00;97548.84;4667568;30;20473;-92
2021/01/17 22:42:58;;;;;;;46.90;13.20;;;3.30;99.90;;;-143.32;100.00;97532.47;4667486;30;20431;-90
2021/01/17 22:45:51;;;;;;;53.50;13.83;;;3.30;99.90;;;-143.32;100.00;97481.34;4667332;30;20461;-90
2021/01/17 22:48:20;;;;;;;74.37;16.40;;;3.30;99.90;;;-143.32;100.00;97499.75;4667602;30;20469;-90
2021/01/17 22:50:47;;;;;;;74.50;16.53;;;3.40;99.90;;;-143.32;100.00;97485.44;4667165;30;20473;-90
2021/01/17 22:53:18;;;;;;;51.07;16.40;;;3.40;99.90;;;-143.32;100.00;97520.22;4667607;30;20483;-93
2021/01/17 22:55:47;;;;;;;48.63;14.97;;;3.30;99.90;;;-143.32;100.00;97477.25;4667470;30;20430;-92
2021/01/17 22:58:14;;;;;;;58.67;16.33;;;3.30;99.90;;;-143.32;100.00;97540.66;4667549;30;20532;-92
2021/01/17 23:00:41;;;;;;;55.37;18.33;;;3.30;99.90;;;-143.32;100.00;97534.53;4668350;30;20469;-91
2021/01/17 23:03:09;;;;;;;72.17;19.00;;;3.30;99.90;;;-143.32;100.00;97536.56;4667434;30;20473;-91
2021/01/17 23:05:36;;;;;;;53.63;20.20;;;3.20;99.90;;;-143.32;100.00;97530.44;4667299;30;20518;-90
2021/01/17 23:08:05;;;;;;;73.73;22.93;;;3.30;99.90;;;-143.32;100.00;97536.56;4666767;30;20501;-92
2021/01/17 23:10:32;;;;;;;71.93;21.57;;;3.30;99.90;;;-143.32;100.00;97536.56;4667250;30;20484;-89
2021/01/17 23:12:59;;;;;;;65.23;22.40;;;3.30;99.90;;;-143.32;100.00;97505.88;4667414;30;20488;-91
2021/01/17 23:15:31;;;;;;;77.13;23.47;;;3.30;99.90;;;-143.32;100.00;97497.69;4668188;30;20488;-93
2021/01/17 23:17:58;;;;;;;142.80;30.10;;;3.40;99.90;;;-143.32;100.00;97548.84;4667864;30;20461;-91
2021/01/17 23:20:26;;;;;;;91.80;27.87;;;3.40;99.90;;;-143.32;100.00;97522.25;4667277;30;20465;-92
2021/01/17 23:22:55;;;;;;;99.37;29.50;;;3.70;99.90;;;-143.32;100.00;97528.38;4667079;30;20477;-92
2021/01/17 23:25:22;;;;;;;113.13;31.47;;;3.60;99.90;;;-143.32;100.00;97514.06;4667049;30;20489;-93
2021/01/17 23:27:50;;;;;;;106.03;28.77;;;3.60;99.90;;;-143.32;100.00;97479.28;4667365;30;21012;-92
2021/01/17 23:30:23;;;;;;;92.03;29.80;;;3.60;99.90;;;-143.32;100.00;97577.50;4667093;30;20969;-92
2021/01/17 23:32:50;;;;;;;94.37;31.20;;;3.60;99.90;;;-143.32;100.00;97526.34;4667726;30;20449;-93
2021/01/17 23:35:22;;;;;;;79.23;29.53;;;3.70;99.90;;;-143.32;100.00;97489.53;4667150;30;20477;-90
2021/01/17 23:37:56;;;;;;;109.37;29.03;;;3.70;99.90;;;-143.32;100.00;97526.34;4667067;30;20461;-92
2021/01/17 23:40:26;;;;;;;94.67;31.30;;;3.70;99.90;;;-143.32;100.00;97546.81;4667102;30;20469;-91
2021/01/17 23:42:56;;;;;;;98.07;31.20;;;3.70;99.90;;;-143.32;100.00;97495.66;4667441;30;20480;-92
2021/01/17 23:45:25;;;;;;;91.37;29.47;;;3.70;99.90;;;-143.32;100.00;97505.88;4668057;30;20473;-91
2021/01/17 23:47:57;;;;;;;97.20;30.30;;;3.70;99.90;;;-143.32;100.00;97528.38;4666919;30;20921;-92
2021/01/17 23:50:25;;;;;;;89.77;27.30;;;3.70;99.90;;;-143.32;100.00;97536.56;4667991;30;20811;-91
2021/01/17 23:52:51;;;;;;;105.73;25.73;;;3.70;99.90;;;-143.32;100.00;97532.47;4667650;30;20552;-92
2021/01/17 23:55:22;;;;;;;88.53;26.50;;;3.70;99.90;;;-143.32;100.00;97499.75;4667752;30;20531;-91
2021/01/17 23:57:51;;;;;;;89.90;24.93;;;3.70;99.90;;;-143.32;100.00;97518.16;4667722;30;20464;-92
